createdAt,value
2024-02-09T00:01:44.191Z,1.4
2024-02-09T00:06:30.679Z,5.9
2024-02-09T00:12:36.392Z,4.9
2024-02-09T00:17:10.013Z,4.9
2024-02-09T00:21:52.414Z,3.5
2024-02-09T00:27:18.818Z,3.5
2024-02-09T00:32:05.161Z,14.8
2024-02-09T00:38:07.685Z,2.6
2024-02-09T00:42:21.081Z,4.8
2024-02-09T00:49:18.039Z,5.6
2024-02-09T00:54:06.354Z,2.3
2024-02-09T00:57:40.459Z,1.6
2024-02-09T01:02:47.893Z,5.4
2024-02-09T01:07:54.200Z,5.0
2024-02-09T01:13:00.629Z,5.0
2024-02-09T01:18:07.211Z,5.0
2024-02-09T01:23:13.542Z,5.0
2024-02-09T01:28:20.065Z,6.5
2024-02-09T01:33:25.345Z,6.5
2024-02-09T01:38:56.747Z,6.5
2024-02-09T01:44:03.190Z,6.5
2024-02-09T01:48:44.532Z,6.9
2024-02-09T01:53:51.865Z,3.7
2024-02-09T01:59:42.401Z,6.7
2024-02-09T02:04:04.761Z,6.3
2024-02-09T02:09:11.047Z,6.0
2024-02-09T02:14:41.464Z,7.8
2024-02-09T02:25:09.210Z,6.5
2024-02-09T02:29:41.685Z,7.5
2024-02-09T02:36:22.940Z,7.6
2024-02-09T02:39:57.850Z,7.0
2024-02-09T02:45:40.557Z,7.1
2024-02-09T02:50:13.139Z,10.3
2024-02-09T02:55:19.707Z,10.3
2024-02-09T03:00:30.103Z,5.3
2024-02-09T03:05:36.766Z,5.3
2024-02-09T03:11:26.956Z,7.2
2024-02-09T03:15:49.223Z,7.2
2024-02-09T03:21:15.656Z,10.3
2024-02-09T03:26:02.007Z,9.4
2024-02-09T03:31:32.466Z,8.8
2024-02-09T03:36:14.800Z,10.2
2024-02-09T03:41:21.156Z,9.0
2024-02-09T03:47:11.636Z,6.4
2024-02-09T03:51:36.987Z,8.6
2024-02-09T03:56:43.376Z,5.1
2024-02-09T04:01:49.799Z,7.2
2024-02-09T04:07:16.225Z,5.0
2024-02-09T04:12:02.607Z,6.6
2024-02-09T04:17:09.005Z,6.9
2024-02-09T04:22:15.380Z,5.3
2024-02-09T04:27:21.739Z,5.5
2024-02-09T04:32:28.168Z,5.3
2024-02-09T04:37:34.554Z,5.0
2024-02-09T04:42:59.991Z,4.0
2024-02-09T04:47:51.327Z,4.1
2024-02-09T04:52:53.700Z,4.5
2024-02-09T04:58:00.124Z,4.1
2024-02-09T05:23:30.282Z,15.2
2024-02-09T05:28:37.813Z,10.2
2024-02-09T05:33:44.022Z,8.5
2024-02-09T05:38:50.397Z,8.1
2024-02-09T05:43:56.735Z,8.6
2024-02-09T05:49:03.221Z,7.4
2024-02-09T05:54:09.490Z,7.8
2024-02-09T05:59:59.981Z,9.9
2024-02-09T06:04:46.330Z,7.1
2024-02-09T06:09:29.005Z,6.4
2024-02-09T06:14:35.371Z,7.3
2024-02-09T06:19:41.871Z,5.5
2024-02-09T06:24:48.164Z,6.5
2024-02-09T06:30:14.552Z,4.2
2024-02-09T06:35:02.351Z,5.5
2024-02-09T06:40:07.516Z,5.4
2024-02-09T06:50:21.975Z,7.1
2024-02-09T06:56:02.540Z,5.1
2024-02-09T07:01:45.174Z,4.5
2024-02-09T07:06:51.349Z,4.7
2024-02-09T07:17:07.890Z,4.0
2024-02-09T07:22:13.263Z,4.4
2024-02-09T07:27:20.626Z,3.9
2024-02-09T07:32:26.166Z,2.9
2024-02-09T07:38:07.440Z,3.4
2024-02-09T07:42:39.760Z,3.9
2024-02-09T07:47:46.336Z,3.2
2024-02-09T07:53:16.645Z,2.2
2024-02-09T08:03:06.180Z,2.3
2024-02-09T08:08:13.911Z,2.2
2024-02-09T08:13:21.458Z,1.7
2024-02-09T08:19:03.080Z,2.9
2024-02-09T08:39:51.390Z,2.1
2024-02-09T08:44:59.167Z,2.0
2024-02-09T08:50:05.365Z,1.5
2024-02-09T08:55:11.804Z,1.8
2024-02-09T09:00:18.101Z,2.1
2024-02-09T09:05:24.480Z,1.3
2024-02-09T09:10:31.109Z,1.0
2024-02-09T09:16:01.568Z,1.9
2024-02-09T09:21:03.935Z,1.9
2024-02-09T09:25:50.476Z,1.6
2024-02-09T09:30:56.668Z,2.2
2024-02-09T09:36:03.083Z,1.4
2024-02-09T09:41:09.539Z,2.1
2024-02-09T09:46:15.914Z,1.8
2024-02-09T09:51:42.222Z,1.5
2024-02-09T09:56:28.583Z,2.3
2024-02-09T10:01:35.271Z,2.1
2024-02-09T10:06:41.607Z,2.4
2024-02-09T10:11:48.113Z,1.8
2024-02-09T10:16:54.488Z,2.6
2024-02-09T10:22:03.426Z,2.7
2024-02-09T10:27:07.263Z,2.5
2024-02-09T10:32:12.651Z,2.5
2024-02-09T10:37:40.298Z,1.5
2024-02-09T10:42:50.596Z,2.2
2024-02-09T10:47:32.086Z,1.3
2024-02-09T10:52:39.475Z,1.6
2024-02-09T10:58:29.934Z,1.8
2024-02-09T11:02:54.731Z,1.7
2024-02-09T11:07:58.540Z,3.8
2024-02-09T11:13:24.990Z,1.7
2024-02-09T11:18:11.429Z,2.2
2024-02-09T11:23:57.809Z,2.5
2024-02-09T11:28:24.238Z,1.8
2024-02-09T11:33:30.682Z,1.5
2024-02-09T11:38:36.958Z,2.7
2024-02-09T11:43:43.418Z,1.7
2024-02-09T11:48:49.816Z,2.7
2024-02-09T11:53:56.106Z,1.9
2024-02-09T11:59:02.593Z,2.9
2024-02-09T12:04:33.595Z,1.5
2024-02-09T12:09:15.752Z,1.3
2024-02-09T12:14:42.083Z,2.1
2024-02-09T12:19:28.618Z,2.6
2024-02-09T12:24:35.033Z,3.0
2024-02-09T12:35:45.636Z,3.2
2024-02-09T12:44:02.820Z,2.8
2024-02-09T12:49:07.929Z,1.5
2024-02-09T12:58:42.538Z,2.6
2024-02-09T13:03:49.951Z,2.4
2024-02-09T13:10:10.416Z,1.8
2024-02-09T13:15:41.939Z,2.0
2024-02-09T13:20:44.452Z,2.2
2024-02-09T13:25:34.825Z,1.7
2024-02-09T13:30:37.100Z,1.7
2024-02-09T13:35:47.133Z,2.5
2024-02-09T13:41:37.698Z,1.3
2024-02-09T13:45:59.971Z,1.7
2024-02-09T13:51:06.371Z,0.7
2024-02-09T13:56:12.729Z,1.4
2024-02-09T14:01:43.167Z,1.6
2024-02-09T14:06:25.611Z,1.1
2024-02-09T14:11:31.860Z,1.5
2024-02-09T14:17:05.896Z,1.9
2024-02-09T14:21:48.269Z,1.5
2024-02-09T14:26:55.883Z,1.2
2024-02-09T14:32:37.419Z,1.2
2024-02-09T14:39:21.023Z,1.8
2024-02-09T14:49:10.280Z,2.0
2024-02-09T14:54:40.628Z,1.4
2024-02-09T14:59:22.926Z,3.0
2024-02-09T15:04:29.331Z,3.5
2024-02-09T15:14:15.002Z,2.2
2024-02-09T15:24:29.720Z,2.6
2024-02-09T15:36:08.444Z,2.6
2024-02-09T15:52:54.036Z,1.1
2024-02-09T16:14:26.241Z,2.1
2024-02-09T16:19:33.937Z,1.8
2024-02-09T16:25:21.087Z,1.3
2024-02-09T16:29:49.403Z,1.8
2024-02-09T16:34:32.783Z,2.6
2024-02-09T16:39:59.135Z,2.5
2024-02-09T16:46:27.779Z,1.9
2024-02-09T16:50:11.974Z,1.5
2024-02-09T16:55:36.489Z,2.3
2024-02-09T17:01:47.186Z,2.4
2024-02-09T17:05:33.380Z,2.7
2024-02-09T17:10:39.922Z,2.0
2024-02-09T17:15:50.247Z,4.3
2024-02-09T17:20:32.725Z,2.1
2024-02-09T17:26:49.132Z,1.8
2024-02-09T17:33:06.953Z,2.4
2024-02-09T17:38:07.054Z,2.4
2024-02-09T17:42:29.326Z,3.8
2024-02-09T17:47:35.745Z,2.9
2024-02-09T17:53:01.306Z,2.8
2024-02-09T17:57:51.820Z,4.4
2024-02-09T18:02:37.057Z,2.5
2024-02-09T18:07:43.581Z,2.0
2024-02-09T18:13:14.108Z,3.3
2024-02-09T18:17:56.406Z,1.7
2024-02-09T18:23:02.752Z,2.1
2024-02-09T18:28:33.202Z,2.5
2024-02-09T18:33:15.554Z,1.3
2024-02-09T18:38:21.877Z,2.4
2024-02-09T18:43:28.387Z,2.8
2024-02-09T18:48:34.826Z,2.3
2024-02-09T18:54:05.249Z,3.6
2024-02-09T18:58:37.809Z,3.1
2024-02-09T19:03:55.233Z,3.6
2024-02-09T19:09:35.676Z,2.5
2024-02-09T19:14:43.200Z,3.2
2024-02-09T19:20:23.669Z,6.7
2024-02-09T19:25:21.088Z,3.9
2024-02-09T19:30:37.437Z,4.1
2024-02-09T19:35:43.850Z,2.4
2024-02-09T19:40:50.246Z,3.2
2024-02-09T19:45:46.544Z,3.1
2024-02-09T19:50:52.952Z,2.6
2024-02-09T19:57:40.397Z,3.6
2024-02-09T20:03:12.812Z,3.7
2024-02-09T20:08:14.262Z,1.7
2024-02-09T20:13:00.569Z,2.6
2024-02-09T20:18:27.358Z,2.8
2024-02-09T20:23:03.349Z,5.3
2024-02-09T20:29:15.919Z,4.4
2024-02-09T20:34:27.278Z,3.4
2024-02-09T20:40:05.710Z,6.3
2024-02-09T20:44:36.050Z,4.0
2024-02-09T20:49:21.377Z,2.0
2024-02-09T20:54:28.767Z,2.6
2024-02-09T21:00:09.266Z,5.2
2024-02-09T21:11:08.280Z,3.2
2024-02-09T21:16:39.417Z,2.9
2024-02-09T21:21:45.611Z,4.3
2024-02-09T21:26:31.978Z,3.4
2024-02-09T21:32:22.577Z,4.4
2024-02-09T21:36:44.769Z,3.9
2024-02-09T21:41:51.176Z,2.8
2024-02-09T21:47:21.641Z,3.8
2024-02-09T21:52:04.156Z,2.8
2024-02-09T21:57:10.559Z,2.8
2024-02-09T22:02:37.058Z,3.1
2024-02-09T22:07:23.446Z,3.5
2024-02-09T22:12:29.759Z,3.8
2024-02-09T22:17:36.695Z,2.6
2024-02-09T22:22:42.588Z,3.8
2024-02-09T22:27:48.941Z,5.6
2024-02-09T22:32:55.420Z,3.3
2024-02-09T22:38:01.760Z,3.3
2024-02-09T22:43:08.080Z,2.8
2024-02-09T22:48:14.607Z,3.8
2024-02-09T22:53:11.069Z,2.9
2024-02-09T22:58:51.837Z,3.6
2024-02-09T23:03:34.069Z,4.4
2024-02-09T23:08:30.484Z,3.9
2024-02-09T23:14:10.812Z,6.1
2024-02-09T23:18:53.165Z,3.3
2024-02-09T23:23:59.531Z,2.7
2024-02-09T23:29:49.991Z,2.9
2024-02-09T23:34:12.406Z,3.1
2024-02-09T23:39:32.790Z,3.7
2024-02-09T23:44:25.111Z,2.7
2024-02-09T23:49:31.685Z,3.3
2024-02-09T23:54:38.009Z,2.3
2024-02-09T23:59:44.356Z,3.1
